| time (UTC) | temp C | wind direction | speed KPH | gust KPH | rain 1hr cm | rain 24hr cm | rain mn cm | humidity % | barometer mb |
| 20260510192001 | 9 | 108 | 0.0 | 1.6 | 0.00 | 0.00 | 0.00 | 92 | 1027.7 |
| 20260510190501 | 9 | 108 | 0.0 | 1.6 | 0.00 | 0.00 | 0.00 | 93 | 1027.7 |
| 20260510185001 | 10 | 107 | 0.0 | 1.6 | 0.00 | 0.00 | 0.00 | 93 | 1027.6 |
| 20260510183500 | 10 | 107 | 0.0 | 1.6 | 0.00 | 0.00 | 0.00 | 94 | 1027.5 |
| 20260510182002 | 9 | 107 | 0.0 | 1.6 | 0.00 | 0.00 | 0.00 | 92 | 1027.4 |
| 20260510180502 | 10 | 107 | 0.0 | 1.6 | 0.00 | 0.00 | 0.00 | 93 | 1027.3 |
| 20260510175001 | 10 | 107 | 0.0 | 1.6 | 0.00 | 0.00 | 0.00 | 94 | 1027.1 |
| 20260510173501 | 10 | 108 | 0.0 | 1.6 | 0.00 | 0.00 | 0.00 | 94 | 1027.1 |
| 20260510172000 | 10 | 107 | 0.0 | 1.6 | 0.00 | 0.00 | 0.00 | 94 | 1027.0 |
| 20260510170502 | 8 | 98 | 0.0 | 1.6 | 0.00 | 0.00 | 0.00 | 94 | 1027.0 |
| 20260510165002 | 8 | 98 | 0.0 | 1.6 | 0.00 | 0.03 | 0.00 | 93 | 1027.0 |
| 20260510163501 | 8 | 98 | 0.0 | 1.6 | 0.00 | 0.03 | 0.00 | 93 | 1026.9 |
| 20260510162001 | 8 | 98 | 0.0 | 1.6 | 0.00 | 0.03 | 0.00 | 93 | 1026.8 |
| 20260510160502 | 8 | 98 | 0.0 | 1.6 | 0.00 | 0.03 | 0.00 | 92 | 1026.8 |
| 20260510155002 | 9 | 98 | 0.0 | 1.6 | 0.00 | 0.03 | 0.00 | 92 | 1026.8 |
| 20260510153502 | 9 | 98 | 0.0 | 1.6 | 0.00 | 0.03 | 0.00 | 93 | 1026.8 |
| 20260510152001 | 9 | 98 | 0.0 | 1.6 | 0.00 | 0.03 | 0.00 | 92 | 1026.8 |
| 20260510150502 | 10 | 98 | 0.0 | 1.6 | 0.00 | 0.03 | 0.00 | 92 | 1026.8 |
| 20260510144935 | 9 | 97 | 0.0 | 1.6 | 0.00 | 0.00 | 0.00 | 93 | 1026.8 |
| 20260510143435 | 9 | 98 | 0.0 | 1.6 | 0.00 | 0.00 | 0.00 | 91 | 1026.8 |
| 20260510141934 | 9 | 98 | 0.0 | 1.6 | 0.00 | 0.00 | 0.00 | 91 | 1026.8 |
| 20260510140434 | 10 | 98 | 0.0 | 1.6 | 0.00 | 0.00 | 0.00 | 91 | 1026.9 |
| 20260510134935 | 10 | 98 | 0.0 | 1.6 | 0.00 | 0.00 | 0.00 | 91 | 1027.0 |
| 20260510133435 | 10 | 98 | 0.0 | 1.6 | 0.00 | 0.00 | 0.00 | 92 | 1026.7 |
| 20260510131934 | 10 | 98 | 0.0 | 1.6 | 0.00 | 0.00 | 0.00 | 91 | 1026.9 |
| 20260510130434 | 10 | 98 | 0.0 | 1.6 | 0.00 | 0.00 | 0.00 | 92 | 1026.8 |
| 20260510124935 | 10 | 34 | 0.0 | 1.6 | 0.00 | 0.00 | 0.00 | 92 | 1026.9 |
| 20260510123435 | 8 | 86 | 1.6 | 1.6 | 0.00 | 0.00 | 0.00 | 91 | 1026.6 |
| 20260510121936 | 8 | 86 | 0.0 | 1.6 | 0.00 | 0.00 | 0.00 | 90 | 1026.6 |
| 20260510120435 | 8 | 86 | 0.0 | 1.6 | 0.00 | 0.00 | 0.00 | 90 | 1026.5 |
| 20260510114935 | 8 | 86 | 0.0 | 1.6 | 0.00 | 0.00 | 0.00 | 90 | 1026.4 |
| 20260510113435 | 9 | 86 | 0.0 | 1.6 | 0.00 | 0.00 | 0.00 | 89 | 1026.3 |
| 20260510111935 | 9 | 86 | 0.0 | 1.6 | 0.00 | 0.00 | 0.00 | 89 | 1026.3 |
| 20260510110435 | 9 | 86 | 0.0 | 1.6 | 0.00 | 0.00 | 0.00 | 88 | 1026.3 |
| 20260510104934 | 10 | 86 | 0.0 | 1.6 | 0.00 | 0.00 | 0.00 | 88 | 1026.2 |
| 20260510103436 | 10 | 86 | 0.0 | 1.6 | 0.00 | 0.00 | 0.00 | 88 | 1026.2 |
| 20260510101936 | 10 | 86 | 0.0 | 1.6 | 0.00 | 0.00 | 0.00 | 87 | 1026.2 |
| 20260510100435 | 10 | 86 | 0.0 | 1.6 | 0.00 | 0.00 | 0.00 | 86 | 1026.1 |
| 20260510094935 | 10 | 86 | 0.0 | 1.6 | 0.00 | 0.00 | 0.00 | 86 | 1026.0 |
| 20260510093436 | 11 | 86 | 0.0 | 1.6 | 0.00 | 0.00 | 0.00 | 84 | 1025.9 |
| 20260510091935 | 11 | 86 | 0.0 | 1.6 | 0.00 | 0.00 | 0.00 | 83 | 1025.7 |
| 20260510090437 | 12 | 86 | 0.0 | 1.6 | 0.00 | 0.00 | 0.00 | 82 | 1025.6 |
| 20260510084935 | 12 | 86 | 0.0 | 1.6 | 0.00 | 0.00 | 0.00 | 79 | 1025.4 |
| 20260510083437 | 13 | 86 | 0.0 | 1.6 | 0.00 | 0.00 | 0.00 | 76 | 1025.2 |
| 20260510081935 | 15 | 86 | 0.0 | 1.6 | 0.00 | 0.00 | 0.00 | 74 | 1025.1 |
| 20260510080436 | 15 | 85 | 0.0 | 1.6 | 0.00 | 0.00 | 0.00 | 70 | 1024.9 |
| 20260510074935 | 16 | 86 | 0.0 | 1.6 | 0.00 | 0.00 | 0.00 | 66 | 1024.7 |
| 20260510073435 | 18 | 86 | 0.0 | 1.6 | 0.00 | 0.00 | 0.00 | 61 | 1024.4 |
| 20260510071936 | 19 | 86 | 0.0 | 1.6 | 0.00 | 0.00 | 0.00 | 58 | 1024.3 |
| 20260510070436 | 20 | 86 | 0.0 | 1.6 | 0.00 | 0.00 | 0.00 | 54 | 1024.1 |
| 20260510064936 | 21 | 86 | 0.0 | 1.6 | 0.00 | 0.00 | 0.00 | 53 | 1024.0 |
| 20260510063435 | 21 | 86 | 0.0 | 1.6 | 0.00 | 0.00 | 0.00 | 51 | 1023.8 |
| 20260510061936 | 21 | 86 | 1.6 | 1.6 | 0.00 | 0.00 | 0.00 | 52 | 1023.8 |
| 20260510060435 | 21 | 85 | 1.6 | 1.6 | 0.00 | 0.00 | 0.00 | 52 | 1023.8 |
| 20260510054936 | 21 | 91 | 3.2 | 1.6 | 0.00 | 0.00 | 0.00 | 51 | 1023.8 |
| 20260510053437 | 21 | 91 | 1.6 | 1.6 | 0.00 | 0.00 | 0.00 | 52 | 1023.8 |
| 20260510051936 | 21 | 123 | 3.2 | 1.6 | 0.00 | 0.00 | 0.00 | 53 | 1023.8 |
| 20260510050436 | 21 | 107 | 6.4 | 1.6 | 0.00 | 0.00 | 0.00 | 53 | 1023.8 |
| 20260510044935 | 21 | 71 | 1.6 | 1.6 | 0.00 | 0.00 | 0.00 | 52 | 1023.7 |
| 20260510043436 | 21 | 48 | 1.6 | 1.6 | 0.00 | 0.00 | 0.00 | 52 | 1023.8 |
| 20260510041935 | 21 | 97 | 6.4 | 1.6 | 0.00 | 0.00 | 0.00 | 52 | 1023.8 |
| 20260510040437 | 21 | 5 | 3.2 | 1.6 | 0.00 | 0.00 | 0.00 | 54 | 1023.9 |
| 20260510034937 | 20 | 46 | 3.2 | 1.6 | 0.00 | 0.00 | 0.00 | 56 | 1024.1 |
| 20260510033436 | 20 | 105 | 0.0 | 1.6 | 0.00 | 0.00 | 0.00 | 55 | 1024.1 |
| 20260510030437 | 20 | 34 | 3.2 | 1.6 | 0.00 | 0.00 | 0.00 | 57 | 1024.4 |
| 20260510024937 | 19 | 38 | 1.6 | 1.6 | 0.00 | 0.00 | 0.00 | 58 | 1024.6 |
| 20260510023437 | 18 | 101 | 6.4 | 1.6 | 0.00 | 0.00 | 0.00 | 59 | 1024.8 |
| 20260510021936 | 18 | 113 | 6.4 | 1.6 | 0.00 | 0.00 | 0.00 | 62 | 1025.0 |
| 20260510020438 | 18 | 71 | 9.7 | 1.6 | 0.00 | 0.00 | 0.00 | 63 | 1025.3 |
| 20260510014937 | 17 | 98 | 3.2 | 1.6 | 0.00 | 0.00 | 0.00 | 64 | 1025.5 |
| 20260510013437 | 17 | 108 | 3.2 | 1.6 | 0.00 | 0.00 | 0.00 | 67 | 1025.8 |
| 20260510011936 | 17 | 76 | 3.2 | 1.6 | 0.00 | 0.00 | 0.00 | 68 | 1026.0 |
| 20260510010437 | 17 | 52 | 3.2 | 1.6 | 0.00 | 0.00 | 0.00 | 71 | 1026.1 |
| 20260510004938 | 16 | 72 | 3.2 | 1.6 | 0.00 | 0.00 | 0.00 | 75 | 1026.2 |
| 20260510003437 | 16 | 94 | 3.2 | 1.6 | 0.00 | 0.00 | 0.00 | 75 | 1026.2 |
| 20260510001938 | 15 | 5 | 1.6 | 1.6 | 0.00 | 0.00 | 0.00 | 77 | 1026.2 |
| 20260510000437 | 14 | 327 | 0.0 | 1.6 | 0.00 | 0.00 | 0.00 | 80 | 1026.2 |
| 20260509234938 | 13 | 355 | 0.0 | 1.6 | 0.00 | 0.00 | 0.00 | 83 | 1026.1 |
| 20260509233437 | 12 | 54 | 0.0 | 1.6 | 0.00 | 0.00 | 0.00 | 86 | 1026.1 |
| 20260509231937 | 11 | 57 | 0.0 | 1.6 | 0.00 | 0.00 | 0.00 | 91 | 1026.0 |
| 20260509230437 | 10 | 62 | 0.0 | 1.6 | 0.00 | 0.00 | 0.00 | 92 | 1026.0 |
| 20260509224938 | 10 | 125 | 0.0 | 1.6 | 0.00 | 0.00 | 0.00 | 95 | 1026.1 |
| 20260509223438 | 9 | 125 | 0.0 | 1.6 | 0.00 | 0.00 | 0.00 | 96 | 1026.1 |
| 20260509221937 | 8 | 125 | 0.0 | 1.6 | 0.00 | 0.00 | 0.00 | 97 | 1025.9 |
| 20260509220437 | 7 | 125 | 0.0 | 1.6 | 0.00 | 0.00 | 0.00 | 96 | 1025.8 |
| 20260509214938 | 5 | 125 | 0.0 | 1.6 | 0.00 | 0.00 | 0.00 | 96 | 1025.7 |
| 20260509213438 | 4 | 125 | 0.0 | 1.6 | 0.00 | 0.00 | 0.00 | 95 | 1025.6 |
| 20260509211938 | 3 | 125 | 0.0 | 1.6 | 0.00 | 0.00 | 0.00 | 94 | 1025.5 |
| 20260509210438 | 3 | 227 | 0.0 | 1.6 | 0.00 | 0.00 | 0.00 | 94 | 1025.2 |
| 20260509204937 | 3 | 227 | 0.0 | 1.6 | 0.00 | 0.00 | 0.00 | 94 | 1025.0 |
| 20260509203437 | 3 | 227 | 0.0 | 1.6 | 0.00 | 0.00 | 0.00 | 94 | 1024.8 |
| 20260509201937 | 4 | 227 | 0.0 | 1.6 | 0.00 | 0.00 | 0.00 | 94 | 1024.6 |
| 20260509200439 | 4 | 227 | 0.0 | 1.6 | 0.00 | 0.00 | 0.00 | 94 | 1024.5 |
| 20260509194938 | 4 | 227 | 0.0 | 1.6 | 0.00 | 0.00 | 0.00 | 94 | 1024.3 |
| 20260509193438 | 4 | 227 | 0.0 | 1.6 | 0.00 | 0.00 | 0.00 | 94 | 1024.2 |